createdAt,value
2018-11-20T00:02:16.371Z,15.72
2018-11-20T00:05:17.183Z,20.57
2018-11-20T00:08:08.385Z,13.95
2018-11-20T00:10:57.285Z,13.25
2018-11-20T00:13:54.507Z,12.05
2018-11-20T00:16:41.739Z,14.93
2018-11-20T00:19:42.367Z,13.20
2018-11-20T00:22:25.983Z,12.82
2018-11-20T00:25:20.289Z,12.98
2018-11-20T00:28:01.457Z,12.80
2018-11-20T00:30:44.488Z,14.18
2018-11-20T00:33:31.381Z,12.75
2018-11-20T00:36:19.006Z,13.25
2018-11-20T00:38:55.882Z,14.98
2018-11-20T00:41:40.589Z,11.33
2018-11-20T00:44:29.177Z,13.40
2018-11-20T00:47:11.835Z,13.78
2018-11-20T00:49:50.051Z,11.97
2018-11-20T00:52:47.420Z,15.78
2018-11-20T00:56:30.000Z,13.85
2018-11-20T00:59:21.417Z,12.75
2018-11-20T01:02:10.153Z,12.30
2018-11-20T01:04:57.578Z,15.08
2018-11-20T01:07:36.810Z,16.07
2018-11-20T01:10:31.270Z,15.60
2018-11-20T01:13:19.443Z,14.10
2018-11-20T01:16:05.591Z,15.40
2018-11-20T01:18:52.910Z,17.02
2018-11-20T01:21:40.478Z,17.07
2018-11-20T01:24:25.862Z,12.58
2018-11-20T01:27:07.460Z,15.50
2018-11-20T01:30:04.400Z,15.72
2018-11-20T01:32:55.881Z,15.48
2018-11-20T01:35:50.152Z,13.55
2018-11-20T01:38:31.742Z,16.02
2018-11-20T01:41:20.274Z,15.20
2018-11-20T01:44:07.334Z,14.63
2018-11-20T01:46:46.360Z,16.90
2018-11-20T01:49:34.692Z,14.60
2018-11-20T01:52:29.004Z,16.30
2018-11-20T01:55:29.564Z,18.95
2018-11-20T01:58:16.728Z,17.48
2018-11-20T02:01:14.229Z,18.25
2018-11-20T02:04:01.174Z,16.37
2018-11-20T02:06:41.864Z,13.75
2018-11-20T02:09:36.506Z,16.82
2018-11-20T02:12:27.518Z,15.85
2018-11-20T02:15:14.381Z,17.90
2018-11-20T02:18:12.585Z,15.18
2018-11-20T02:20:51.316Z,14.75
2018-11-20T02:23:34.557Z,14.95
2018-11-20T02:26:21.920Z,17.17
2018-11-20T02:29:15.421Z,14.07
2018-11-20T02:32:12.922Z,16.02
2018-11-20T02:35:06.351Z,16.30
2018-11-20T02:38:13.025Z,13.32
2018-11-20T02:40:57.599Z,14.98
2018-11-20T02:43:44.577Z,14.00
2018-11-20T02:46:42.196Z,15.88
2018-11-20T02:49:29.389Z,14.28
2018-11-20T02:52:12.910Z,15.05
2018-11-20T02:55:01.248Z,17.60
2018-11-20T02:57:48.560Z,14.20
2018-11-20T03:00:51.755Z,17.75
2018-11-20T03:03:49.323Z,17.62
2018-11-20T03:06:40.645Z,18.77
2018-11-20T03:09:23.007Z,15.18
2018-11-20T03:12:08.109Z,15.68
2018-11-20T03:14:46.622Z,14.68
2018-11-20T03:17:30.666Z,14.80
2018-11-20T03:20:13.360Z,14.43
2018-11-20T03:23:01.271Z,15.40
2018-11-20T03:26:04.889Z,13.53
2018-11-20T03:28:58.882Z,14.20
2018-11-20T03:31:52.765Z,14.68
2018-11-20T03:34:34.544Z,14.53
2018-11-20T03:37:18.781Z,16.75
2018-11-20T03:40:16.244Z,17.80
2018-11-20T03:42:55.324Z,18.42
2018-11-20T03:45:46.825Z,19.32
2018-11-20T03:48:38.204Z,20.25
2018-11-20T03:51:25.360Z,19.32
2018-11-20T03:54:16.735Z,15.00
2018-11-20T03:57:01.963Z,16.15
2018-11-20T04:00:05.645Z,17.95
2018-11-20T04:02:52.764Z,25.62
2018-11-20T04:05:39.867Z,19.35
2018-11-20T04:08:28.246Z,17.73
2018-11-20T04:11:16.245Z,19.15
2018-11-20T04:14:11.966Z,20.23
2018-11-20T04:16:54.110Z,17.65
2018-11-20T04:19:54.702Z,19.30
2018-11-20T04:22:41.198Z,19.10
2018-11-20T04:25:44.448Z,18.62
2018-11-20T04:28:32.035Z,18.02
2018-11-20T04:31:52.056Z,20.90
2018-11-20T04:34:49.520Z,19.57
2018-11-20T04:37:45.412Z,20.25
2018-11-20T04:40:31.536Z,22.42
2018-11-20T04:43:18.612Z,17.42
2018-11-20T04:46:06.087Z,20.27
2018-11-20T04:48:45.257Z,18.12
2018-11-20T04:51:21.174Z,19.23
2018-11-20T04:54:24.669Z,16.15
2018-11-20T04:57:15.848Z,18.73
2018-11-20T05:00:12.531Z,18.45
2018-11-20T05:06:29.304Z,20.97
2018-11-20T05:09:20.780Z,21.82
2018-11-20T05:15:14.225Z,17.10
2018-11-20T05:18:01.120Z,22.85
2018-11-20T05:20:55.421Z,17.25
2018-11-20T05:23:39.476Z,18.55
2018-11-20T05:26:19.893Z,19.00
2018-11-20T05:29:06.960Z,22.10
2018-11-20T05:31:59.289Z,19.62
2018-11-20T05:34:46.312Z,20.00
2018-11-20T05:37:33.428Z,18.15
2018-11-20T05:40:23.617Z,16.97
2018-11-20T05:43:14.920Z,19.95
2018-11-20T05:46:06.099Z,18.95
2018-11-20T05:48:53.267Z,17.40
2018-11-20T05:51:41.870Z,19.85
2018-11-20T05:54:23.809Z,20.60
2018-11-20T05:57:12.532Z,17.62
2018-11-20T06:00:09.815Z,15.43
2018-11-20T06:03:01.610Z,20.57
2018-11-20T06:05:55.913Z,23.02
2018-11-20T06:08:43.040Z,18.62
2018-11-20T06:11:30.196Z,19.12
2018-11-20T06:14:21.488Z,19.67
2018-11-20T06:17:12.960Z,19.15
2018-11-20T06:20:05.120Z,20.15
2018-11-20T06:22:49.400Z,18.95
2018-11-20T06:25:40.904Z,21.10
2018-11-20T06:28:38.169Z,17.48
2018-11-20T06:31:31.806Z,18.75
2018-11-20T06:34:20.378Z,19.75
2018-11-20T06:37:11.286Z,19.17
2018-11-20T06:39:58.411Z,19.40
2018-11-20T06:42:49.837Z,23.40
2018-11-20T06:45:41.576Z,19.10
2018-11-20T06:48:32.324Z,21.65
2018-11-20T06:51:19.391Z,19.90
2018-11-20T06:54:13.501Z,22.10
2018-11-20T06:57:17.164Z,18.80
2018-11-20T07:00:04.367Z,19.17
2018-11-20T07:02:52.666Z,18.95
2018-11-20T07:05:45.859Z,22.62
2018-11-20T07:08:52.859Z,18.90
2018-11-20T07:11:39.796Z,19.77
2018-11-20T07:14:38.689Z,18.67
2018-11-20T07:17:25.682Z,20.12
2018-11-20T07:20:15.198Z,22.67
2018-11-20T07:23:12.904Z,27.05
2018-11-20T07:25:58.176Z,20.60
2018-11-20T07:28:45.400Z,20.08
2018-11-20T07:31:32.858Z,21.33
2018-11-20T07:34:19.980Z,23.83
2018-11-20T07:37:19.703Z,21.80
2018-11-20T07:40:11.434Z,19.40
2018-11-20T07:42:58.634Z,21.12
2018-11-20T07:46:02.319Z,20.15
2018-11-20T07:49:03.710Z,20.55
2018-11-20T07:51:47.215Z,19.23
2018-11-20T07:54:44.687Z,20.72
2018-11-20T07:57:26.388Z,22.93
2018-11-20T08:00:13.906Z,20.92
2018-11-20T08:03:01.310Z,20.48
2018-11-20T08:06:00.080Z,21.35
2018-11-20T08:08:46.970Z,21.90
2018-11-20T08:11:41.702Z,18.80
2018-11-20T08:14:42.402Z,21.55
2018-11-20T08:17:30.851Z,18.85
2018-11-20T08:20:32.979Z,21.65
2018-11-20T08:23:35.248Z,34.43
2018-11-20T08:26:14.580Z,24.05
2018-11-20T08:29:01.830Z,22.62
2018-11-20T08:31:56.957Z,19.17
2018-11-20T08:38:17.409Z,21.93
2018-11-20T08:41:10.129Z,20.70
2018-11-20T08:44:00.826Z,20.85
2018-11-20T08:46:45.655Z,22.55
2018-11-20T08:49:36.369Z,23.07
2018-11-20T08:52:27.131Z,19.87
2018-11-20T08:55:33.321Z,23.25
2018-11-20T08:58:19.509Z,22.13
2018-11-20T09:01:07.752Z,18.82
2018-11-20T09:03:55.793Z,20.12
2018-11-20T09:06:38.960Z,21.12
2018-11-20T09:09:23.348Z,23.42
2018-11-20T09:12:04.238Z,24.37
2018-11-20T09:15:10.683Z,21.90
2018-11-20T09:18:14.705Z,19.25
2018-11-20T09:21:05.269Z,20.55
2018-11-20T09:23:56.969Z,18.67
2018-11-20T09:26:57.858Z,17.40
2018-11-20T09:30:04.375Z,18.45
2018-11-20T09:33:02.152Z,19.02
2018-11-20T09:35:56.072Z,21.33
2018-11-20T09:38:46.723Z,22.75
2018-11-20T09:41:37.314Z,21.85
2018-11-20T09:44:59.927Z,23.65
2018-11-20T09:47:48.720Z,21.73
2018-11-20T09:50:33.908Z,23.20
2018-11-20T09:53:25.313Z,26.20
2018-11-20T09:56:21.831Z,24.85
2018-11-20T09:59:12.720Z,24.23
2018-11-20T10:02:03.785Z,26.60
2018-11-20T10:04:54.715Z,22.80
2018-11-20T10:07:52.810Z,27.50
2018-11-20T10:10:41.821Z,22.65
2018-11-20T10:13:28.887Z,25.30
2018-11-20T10:16:15.393Z,22.30
2018-11-20T10:19:09.319Z,22.30
2018-11-20T10:21:55.660Z,25.65
2018-11-20T10:24:59.073Z,26.02
2018-11-20T10:27:45.341Z,23.73
2018-11-20T10:30:44.969Z,25.48
2018-11-20T10:33:41.569Z,25.08
2018-11-20T10:36:27.892Z,24.18
2018-11-20T10:39:14.012Z,24.02
2018-11-20T10:42:04.715Z,26.02
2018-11-20T10:44:55.003Z,27.07
2018-11-20T10:47:46.525Z,30.68
2018-11-20T10:50:33.061Z,25.85
2018-11-20T10:53:19.985Z,24.98
2018-11-20T10:56:06.753Z,21.75
2018-11-20T10:59:00.749Z,28.52
2018-11-20T11:01:47.377Z,26.30
2018-11-20T11:04:33.372Z,28.52
2018-11-20T11:07:30.293Z,24.50
2018-11-20T11:10:20.391Z,25.00
2018-11-20T11:13:06.871Z,23.67
2018-11-20T11:15:57.721Z,27.17
2018-11-20T11:18:44.113Z,26.97
2018-11-20T11:21:46.832Z,26.27
2018-11-20T11:24:43.403Z,25.62
2018-11-20T11:27:29.883Z,28.77
2018-11-20T11:30:16.827Z,28.38
2018-11-20T11:33:02.912Z,29.10
2018-11-20T11:35:49.113Z,28.80
2018-11-20T11:38:38.407Z,29.45
2018-11-20T11:41:27.549Z,28.65
2018-11-20T11:44:16.348Z,28.55
2018-11-20T11:46:59.845Z,32.93
2018-11-20T11:49:46.641Z,24.10
2018-11-20T11:52:32.769Z,35.30
2018-11-20T11:55:15.690Z,30.43
2018-11-20T11:57:57.566Z,34.03
2018-11-20T12:00:44.225Z,30.05
2018-11-20T12:03:41.015Z,31.40
2018-11-20T12:06:47.085Z,31.42
2018-11-20T12:09:43.567Z,34.33
2018-11-20T12:12:24.567Z,26.12
2018-11-20T12:15:12.351Z,27.30
2018-11-20T12:18:09.050Z,30.30
2018-11-20T12:20:48.947Z,32.10
2018-11-20T12:23:32.739Z,33.83
2018-11-20T12:26:29.528Z,32.00
2018-11-20T12:29:17.095Z,29.60
2018-11-20T12:32:08.502Z,27.55
2018-11-20T12:34:54.416Z,30.57
2018-11-20T12:37:40.701Z,32.58
2018-11-20T12:40:22.370Z,32.30
2018-11-20T12:43:08.897Z,34.48
2018-11-20T12:45:55.984Z,30.30
2018-11-20T12:48:42.594Z,32.73
2018-11-20T12:51:34.367Z,33.23
2018-11-20T12:54:40.157Z,29.30
2018-11-20T12:57:37.118Z,31.15
2018-11-20T13:00:25.078Z,35.75
2018-11-20T13:03:24.534Z,36.70
2018-11-20T13:06:10.983Z,38.15
2018-11-20T13:09:09.650Z,30.08
2018-11-20T13:12:00.328Z,33.70
2018-11-20T13:14:50.710Z,36.98
2018-11-20T13:17:40.909Z,30.35
2018-11-20T13:20:29.640Z,34.58
2018-11-20T13:23:18.061Z,31.00
2018-11-20T13:26:24.541Z,23.10
2018-11-20T13:29:11.780Z,31.27
2018-11-20T13:32:02.553Z,33.73
2018-11-20T13:34:50.438Z,34.33
2018-11-20T13:37:51.812Z,33.90
2018-11-20T13:41:27.519Z,30.95
2018-11-20T13:44:22.735Z,33.35
2018-11-20T13:47:09.613Z,30.70
2018-11-20T13:49:47.894Z,31.33
2018-11-20T13:52:34.267Z,29.15
2018-11-20T13:55:31.952Z,34.38
2018-11-20T13:58:23.651Z,31.87
2018-11-20T14:01:16.495Z,34.10
2018-11-20T14:04:10.401Z,36.53
2018-11-20T14:06:51.373Z,30.05
2018-11-20T14:09:34.580Z,34.50
2018-11-20T14:12:21.047Z,31.85
2018-11-20T14:15:14.030Z,35.65
2018-11-20T14:18:00.714Z,31.48
2018-11-20T14:20:51.470Z,26.05
2018-11-20T14:23:39.528Z,33.55
2018-11-20T14:26:26.360Z,32.70
2018-11-20T14:29:22.655Z,31.48
2018-11-20T14:32:04.374Z,31.05
2018-11-20T14:34:58.388Z,29.52
2018-11-20T14:37:46.763Z,30.68
2018-11-20T14:40:33.226Z,32.58
2018-11-20T14:43:15.834Z,34.50
2018-11-20T14:46:02.836Z,31.87
2018-11-20T14:48:48.934Z,27.05
2018-11-20T14:51:34.548Z,36.20
2018-11-20T14:54:28.433Z,31.12
2018-11-20T14:57:28.519Z,37.95
2018-11-20T15:00:14.996Z,30.97
2018-11-20T15:03:01.728Z,30.32
2018-11-20T15:05:48.692Z,31.97
2018-11-20T15:08:34.830Z,28.62
2018-11-20T15:11:30.040Z,35.30
2018-11-20T15:14:22.182Z,32.33
2018-11-20T15:17:11.432Z,26.27
2018-11-20T15:20:11.129Z,28.87
2018-11-20T15:22:57.596Z,29.12
2018-11-20T15:25:43.728Z,26.17
2018-11-20T15:28:26.563Z,25.17
2018-11-20T15:31:08.031Z,25.68
2018-11-20T15:34:04.034Z,24.10
2018-11-20T15:37:03.783Z,23.65
2018-11-20T15:39:54.702Z,25.02
2018-11-20T15:42:44.168Z,26.73
2018-11-20T15:45:30.436Z,18.35
2018-11-20T15:48:15.231Z,22.00
2018-11-20T15:51:03.572Z,20.57
2018-11-20T15:53:56.280Z,21.48
2018-11-20T15:56:58.974Z,19.55
2018-11-20T15:59:46.740Z,22.05
2018-11-20T16:02:52.548Z,19.27
2018-11-20T16:05:47.493Z,23.45
2018-11-20T16:08:41.466Z,18.48
2018-11-20T16:11:21.138Z,20.50
2018-11-20T16:14:07.500Z,18.80
2018-11-20T16:16:45.829Z,20.85
2018-11-20T16:19:32.478Z,20.43
2018-11-20T16:22:26.968Z,20.52
2018-11-20T16:25:13.655Z,29.25
2018-11-20T16:28:09.406Z,24.57
2018-11-20T16:31:02.947Z,16.02
2018-11-20T16:33:50.905Z,25.23
2018-11-20T16:36:38.704Z,20.72
2018-11-20T16:39:30.918Z,20.88
2018-11-20T16:42:23.932Z,17.60
2018-11-20T16:45:06.652Z,19.73
2018-11-20T16:47:58.122Z,18.75
2018-11-20T16:50:44.866Z,22.87
2018-11-20T16:53:50.512Z,22.15
2018-11-20T16:56:31.309Z,20.43
2018-11-20T16:59:11.466Z,19.35
2018-11-20T17:01:57.886Z,20.00
2018-11-20T17:04:34.231Z,21.82
2018-11-20T17:07:31.047Z,20.50
2018-11-20T17:10:28.308Z,18.27
2018-11-20T17:13:14.551Z,21.30
2018-11-20T17:16:01.590Z,20.05
2018-11-20T17:19:07.249Z,21.95
2018-11-20T17:22:01.556Z,20.45
2018-11-20T17:25:01.638Z,19.17
2018-11-20T17:28:04.174Z,18.77
2018-11-20T17:30:50.659Z,19.15
2018-11-20T17:33:44.664Z,18.35
2018-11-20T17:36:35.085Z,20.30
2018-11-20T17:39:28.504Z,24.67
2018-11-20T17:42:22.256Z,21.60
2018-11-20T17:45:00.492Z,18.35
2018-11-20T17:47:51.233Z,25.02
2018-11-20T17:50:51.120Z,19.25
2018-11-20T17:53:36.459Z,22.58
2018-11-20T17:56:24.541Z,21.48
2018-11-20T17:59:18.545Z,23.87
2018-11-20T18:02:11.993Z,19.55
2018-11-20T18:04:58.889Z,20.20
2018-11-20T18:07:56.202Z,21.12
2018-11-20T18:10:45.208Z,19.92
2018-11-20T18:13:39.078Z,21.25
2018-11-20T18:16:27.409Z,19.05
2018-11-20T18:19:25.712Z,25.25
2018-11-20T18:22:07.195Z,20.25
2018-11-20T18:24:47.693Z,24.30
2018-11-20T18:27:36.143Z,19.48
2018-11-20T18:30:32.814Z,21.15
2018-11-20T18:33:26.648Z,24.27
2018-11-20T18:36:13.875Z,21.60
2018-11-20T18:39:01.811Z,24.23
2018-11-20T18:41:51.003Z,25.88
2018-11-20T18:44:37.753Z,27.13
2018-11-20T18:47:25.836Z,21.45
2018-11-20T18:50:13.040Z,24.45
2018-11-20T18:52:52.626Z,22.98
2018-11-20T18:55:40.693Z,21.00
2018-11-20T18:58:32.058Z,22.95
2018-11-20T19:01:18.435Z,23.73
2018-11-20T19:04:15.391Z,21.07
2018-11-20T19:07:01.606Z,19.92
2018-11-20T19:09:48.366Z,22.73
2018-11-20T19:12:36.141Z,23.45
2018-11-20T19:15:39.713Z,25.27
2018-11-20T19:18:23.748Z,24.80
2018-11-20T19:21:06.725Z,30.80
2018-11-20T19:23:53.764Z,24.77
2018-11-20T19:26:53.542Z,22.02
2018-11-20T19:29:33.159Z,27.42
2018-11-20T19:32:33.085Z,22.73
2018-11-20T19:35:38.994Z,20.40
2018-11-20T19:38:26.833Z,24.12
2018-11-20T19:41:12.956Z,23.77
2018-11-20T19:44:00.075Z,26.20
2018-11-20T19:46:46.840Z,25.88
2018-11-20T19:49:28.941Z,20.95
2018-11-20T19:52:15.672Z,23.42
2018-11-20T19:55:06.681Z,23.20
2018-11-20T19:57:56.297Z,21.87
2018-11-20T20:00:46.900Z,28.12
2018-11-20T20:03:34.161Z,25.35
2018-11-20T20:06:22.122Z,25.23
2018-11-20T20:09:08.957Z,25.62
2018-11-20T20:12:09.216Z,31.00
2018-11-20T20:15:08.900Z,27.07
2018-11-20T20:17:56.839Z,26.95
2018-11-20T20:20:41.429Z,24.18
2018-11-20T20:23:38.193Z,23.07
2018-11-20T20:26:25.816Z,26.42
2018-11-20T20:29:32.388Z,26.82
2018-11-20T20:32:20.226Z,26.85
2018-11-20T20:35:15.533Z,29.07
2018-11-20T20:38:09.130Z,28.02
2018-11-20T20:40:55.670Z,24.57
2018-11-20T20:43:55.266Z,28.65
2018-11-20T20:46:41.716Z,29.30
2018-11-20T20:49:27.926Z,27.40
2018-11-20T20:52:06.318Z,23.27
2018-11-20T20:54:53.402Z,25.17
2018-11-20T20:57:44.058Z,32.98
2018-11-20T21:00:32.789Z,29.95
2018-11-20T21:03:24.889Z,29.45
2018-11-20T21:06:15.775Z,28.62
2018-11-20T21:09:02.477Z,28.15
2018-11-20T21:11:50.045Z,26.15
2018-11-20T21:14:41.275Z,28.15
2018-11-20T21:17:23.762Z,32.42
2018-11-20T21:20:10.949Z,28.27
2018-11-20T21:23:01.381Z,31.20
2018-11-20T21:25:50.415Z,28.70
2018-11-20T21:28:37.291Z,30.82
2018-11-20T21:31:20.710Z,26.97
2018-11-20T21:34:17.017Z,31.65
2018-11-20T21:37:03.294Z,32.73
2018-11-20T21:39:54.488Z,30.95
2018-11-20T21:42:50.962Z,30.88
2018-11-20T21:45:36.319Z,26.73
2018-11-20T21:48:23.203Z,33.55
2018-11-20T21:51:14.837Z,38.78
2018-11-20T21:54:14.772Z,33.53
2018-11-20T21:57:01.261Z,35.33
2018-11-20T22:00:06.879Z,29.67
2018-11-20T22:03:02.079Z,32.15
2018-11-20T22:05:52.424Z,32.17
2018-11-20T22:08:42.727Z,31.70
2018-11-20T22:11:29.026Z,37.17
2018-11-20T22:14:31.676Z,33.92
2018-11-20T22:17:21.334Z,35.70
2018-11-20T22:20:21.141Z,34.73
2018-11-20T22:23:14.973Z,34.43
2018-11-20T22:26:12.004Z,30.77
2018-11-20T22:29:02.610Z,33.85
2018-11-20T22:31:49.985Z,34.27
2018-11-20T22:34:45.044Z,33.90
2018-11-20T22:37:29.898Z,39.65
2018-11-20T22:40:33.079Z,36.68
2018-11-20T22:43:31.573Z,35.05
2018-11-20T22:46:32.491Z,34.98
2018-11-20T22:49:21.132Z,35.78
2018-11-20T22:52:09.800Z,33.48
2018-11-20T22:55:01.409Z,36.93
2018-11-20T22:57:49.501Z,35.03
2018-11-20T23:00:35.983Z,41.68
2018-11-20T23:03:22.491Z,36.85
2018-11-20T23:06:05.515Z,31.50
2018-11-20T23:08:34.440Z,32.98
2018-11-20T23:11:03.475Z,34.75
2018-11-20T23:13:33.035Z,39.63
2018-11-20T23:16:01.679Z,37.90
2018-11-20T23:18:30.469Z,40.92
2018-11-20T23:20:59.430Z,35.17
2018-11-20T23:23:29.157Z,34.10
2018-11-20T23:25:58.021Z,39.40
2018-11-20T23:28:30.417Z,33.90
2018-11-20T23:30:59.311Z,39.03
2018-11-20T23:33:28.431Z,30.80
2018-11-20T23:35:57.467Z,35.95
2018-11-20T23:38:26.202Z,34.35
2018-11-20T23:40:55.285Z,33.60
2018-11-20T23:43:24.550Z,37.42
2018-11-20T23:45:53.604Z,37.80
2018-11-20T23:48:22.176Z,31.12
2018-11-20T23:50:51.020Z,35.08
2018-11-20T23:53:23.491Z,34.65
2018-11-20T23:55:52.386Z,35.28
2018-11-20T23:58:21.228Z,35.25
